createdAt,value
2022-08-20T00:01:27.095Z,4.15
2022-08-20T00:03:36.283Z,5.07
2022-08-20T00:05:42.797Z,11.65
2022-08-20T00:07:45.443Z,5.85
2022-08-20T00:09:48.142Z,5.20
2022-08-20T00:11:50.759Z,3.67
2022-08-20T00:13:57.162Z,14.35
2022-08-20T00:16:00.194Z,8.05
2022-08-20T00:18:03.903Z,5.80
2022-08-20T00:20:10.073Z,7.72
2022-08-20T00:22:13.758Z,4.88
2022-08-20T00:24:16.858Z,14.27
2022-08-20T00:26:20.770Z,7.82
2022-08-20T00:28:23.405Z,6.25
2022-08-20T00:30:27.231Z,5.30
2022-08-20T00:32:29.850Z,5.60
2022-08-20T00:34:32.658Z,5.68
2022-08-20T00:36:35.325Z,5.35
2022-08-20T00:38:40.162Z,8.48
2022-08-20T00:40:52.565Z,6.38
2022-08-20T00:42:59.503Z,11.98
2022-08-20T00:45:02.279Z,7.72
2022-08-20T00:47:06.405Z,5.75
2022-08-20T00:49:15.223Z,8.40
2022-08-20T00:51:17.919Z,7.03
2022-08-20T00:53:23.831Z,4.53
2022-08-20T00:55:31.456Z,6.10
2022-08-20T00:57:43.808Z,7.60
2022-08-20T01:00:09.809Z,13.20
2022-08-20T01:02:16.371Z,4.25
2022-08-20T01:04:19.459Z,4.03
2022-08-20T01:06:22.763Z,4.32
2022-08-20T01:08:26.954Z,6.80
2022-08-20T01:10:35.222Z,8.45
2022-08-20T01:12:41.095Z,9.10
2022-08-20T01:14:46.388Z,10.75
2022-08-20T01:16:53.343Z,8.77
2022-08-20T01:18:57.862Z,9.20
2022-08-20T01:21:04.312Z,5.22
2022-08-20T01:23:27.848Z,6.47
2022-08-20T01:25:41.760Z,4.47
2022-08-20T01:27:46.363Z,4.93
2022-08-20T01:29:54.102Z,6.35
2022-08-20T01:32:01.574Z,6.10
2022-08-20T01:34:08.377Z,7.15
2022-08-20T01:36:12.849Z,8.32
2022-08-20T01:38:15.455Z,7.63
2022-08-20T01:40:27.946Z,7.30
2022-08-20T01:42:58.992Z,10.00
2022-08-20T01:45:04.376Z,7.20
2022-08-20T01:47:17.920Z,14.18
2022-08-20T01:49:25.921Z,13.05
2022-08-20T01:51:30.913Z,8.85
2022-08-20T01:53:41.723Z,8.55
2022-08-20T01:55:44.611Z,12.07
2022-08-20T01:57:48.594Z,7.22
2022-08-20T01:59:51.528Z,8.38
2022-08-20T02:01:54.896Z,13.77
2022-08-20T02:03:57.682Z,8.50
2022-08-20T02:06:01.496Z,8.80
2022-08-20T02:08:05.636Z,10.75
2022-08-20T02:10:11.938Z,6.90
2022-08-20T02:12:14.881Z,10.25
2022-08-20T02:14:17.621Z,7.25
2022-08-20T02:16:29.345Z,11.05
2022-08-20T02:20:34.928Z,8.30
2022-08-20T02:22:55.127Z,9.40
2022-08-20T02:24:57.963Z,10.48
2022-08-20T02:27:00.708Z,9.52
2022-08-20T02:29:06.071Z,16.88
2022-08-20T02:31:08.825Z,17.55
2022-08-20T02:33:14.811Z,13.10
2022-08-20T02:35:19.407Z,10.05
2022-08-20T02:37:22.046Z,8.88
2022-08-20T02:39:25.961Z,11.07
2022-08-20T02:41:29.867Z,11.68
2022-08-20T02:43:32.512Z,7.88
2022-08-20T02:45:37.498Z,11.25
2022-08-20T02:47:40.238Z,7.10
2022-08-20T02:49:43.137Z,10.35
2022-08-20T02:51:46.501Z,10.13
2022-08-20T02:53:49.191Z,11.30
2022-08-20T02:55:52.060Z,13.27
2022-08-20T02:58:00.271Z,8.90
2022-08-20T03:00:15.164Z,14.18
2022-08-20T03:02:18.103Z,8.82
2022-08-20T03:04:20.820Z,7.70
2022-08-20T03:06:28.713Z,10.88
2022-08-20T03:08:31.495Z,9.63
2022-08-20T03:10:36.255Z,5.97
2022-08-20T03:12:39.135Z,12.15
2022-08-20T03:14:41.826Z,9.95
2022-08-20T03:16:44.473Z,9.35
2022-08-20T03:18:48.283Z,9.30
2022-08-20T03:20:54.787Z,5.45
2022-08-20T03:22:57.952Z,8.10
2022-08-20T03:25:00.524Z,6.55
2022-08-20T03:27:03.199Z,9.45
2022-08-20T03:29:05.924Z,10.63
2022-08-20T03:31:09.006Z,7.07
2022-08-20T03:33:11.927Z,10.38
2022-08-20T03:35:16.707Z,8.20
2022-08-20T03:37:19.526Z,16.33
2022-08-20T03:39:22.210Z,7.00
2022-08-20T03:41:25.625Z,10.52
2022-08-20T03:43:28.767Z,6.95
2022-08-20T03:45:32.675Z,9.38
2022-08-20T03:47:36.095Z,5.57
2022-08-20T03:49:38.760Z,7.72
2022-08-20T03:51:57.758Z,6.80
2022-08-20T03:54:00.984Z,11.32
2022-08-20T03:56:06.374Z,6.47
2022-08-20T03:58:10.416Z,11.68
2022-08-20T04:00:15.680Z,4.95
2022-08-20T04:02:18.731Z,9.02
2022-08-20T04:04:22.274Z,7.60
2022-08-20T04:06:25.818Z,7.75
2022-08-20T04:08:29.979Z,6.80
2022-08-20T04:10:32.790Z,13.18
2022-08-20T04:12:37.601Z,5.88
2022-08-20T04:14:40.526Z,6.72
2022-08-20T04:16:43.996Z,6.55
2022-08-20T04:19:01.601Z,5.22
2022-08-20T04:21:06.106Z,4.65
2022-08-20T04:23:09.515Z,8.95
2022-08-20T04:25:15.977Z,6.32
2022-08-20T04:27:20.465Z,6.88
2022-08-20T04:29:26.100Z,8.27
2022-08-20T04:31:35.072Z,7.47
2022-08-20T04:33:37.726Z,10.55
2022-08-20T04:35:40.388Z,6.38
2022-08-20T04:37:43.311Z,5.82
2022-08-20T04:39:45.983Z,6.03
2022-08-20T04:41:48.986Z,5.85
2022-08-20T04:43:56.724Z,11.73
2022-08-20T04:46:02.363Z,5.53
2022-08-20T04:48:07.525Z,4.70
2022-08-20T04:50:13.812Z,10.75
2022-08-20T04:52:16.457Z,8.18
2022-08-20T04:54:19.186Z,9.27
2022-08-20T04:56:28.449Z,5.93
2022-08-20T04:58:34.758Z,5.57
2022-08-20T05:00:37.959Z,7.00
2022-08-20T05:02:40.940Z,4.78
2022-08-20T05:04:43.579Z,8.23
2022-08-20T05:06:46.201Z,5.47
2022-08-20T05:08:48.915Z,8.65
2022-08-20T05:10:56.036Z,5.13
2022-08-20T05:13:16.667Z,5.40
2022-08-20T05:15:20.100Z,7.38
2022-08-20T05:17:24.005Z,5.47
2022-08-20T05:19:29.150Z,9.48
2022-08-20T05:21:31.800Z,10.50
2022-08-20T05:23:36.869Z,12.18
2022-08-20T05:25:42.112Z,3.63
2022-08-20T05:27:47.723Z,8.70
2022-08-20T05:29:52.228Z,4.85
2022-08-20T05:31:56.822Z,9.52
2022-08-20T05:33:59.579Z,7.03
2022-08-20T05:36:02.686Z,8.38
2022-08-20T05:38:11.912Z,4.57
2022-08-20T05:40:15.008Z,5.60
2022-08-20T05:42:17.876Z,6.18
2022-08-20T05:44:20.940Z,5.00
2022-08-20T05:46:23.534Z,3.85
2022-08-20T05:48:26.284Z,10.15
2022-08-20T05:50:28.905Z,6.45
2022-08-20T05:52:31.555Z,6.35
2022-08-20T05:54:34.311Z,4.63
2022-08-20T05:56:37.432Z,4.50
2022-08-20T05:58:40.171Z,9.48
2022-08-20T06:00:42.912Z,5.90
2022-08-20T06:03:04.168Z,4.68
2022-08-20T06:05:07.029Z,5.93
2022-08-20T06:07:12.225Z,5.75
2022-08-20T06:09:31.017Z,6.90
2022-08-20T06:11:37.171Z,8.40
2022-08-20T06:13:40.177Z,8.55
2022-08-20T06:15:42.902Z,6.32
2022-08-20T06:17:45.993Z,7.70
2022-08-20T06:20:05.791Z,3.53
2022-08-20T06:22:17.900Z,7.90
2022-08-20T06:24:27.131Z,7.22
2022-08-20T06:26:31.113Z,4.22
2022-08-20T06:28:33.908Z,5.30
2022-08-20T06:30:37.314Z,6.82
2022-08-20T06:32:40.325Z,13.88
2022-08-20T06:34:49.957Z,10.82
2022-08-20T06:36:54.927Z,6.85
2022-08-20T06:38:58.545Z,4.40
2022-08-20T06:41:01.265Z,8.18
2022-08-20T06:43:04.250Z,6.50
2022-08-20T06:45:07.332Z,4.85
2022-08-20T06:47:09.950Z,5.55
2022-08-20T06:49:13.216Z,5.93
2022-08-20T06:51:15.949Z,6.72
2022-08-20T06:53:21.014Z,3.80
2022-08-20T06:55:24.173Z,5.25
2022-08-20T06:57:27.566Z,4.30
2022-08-20T06:59:30.270Z,6.05
2022-08-20T07:01:33.357Z,6.28
2022-08-20T07:03:38.472Z,4.90
2022-08-20T07:05:44.038Z,3.80
2022-08-20T07:07:51.314Z,8.85
2022-08-20T07:10:09.291Z,6.47
2022-08-20T07:12:14.368Z,8.48
2022-08-20T07:14:18.549Z,7.32
2022-08-20T07:16:21.127Z,9.15
2022-08-20T07:18:28.157Z,4.80
2022-08-20T07:20:34.722Z,6.75
2022-08-20T07:22:37.584Z,4.30
2022-08-20T07:24:42.010Z,4.93
2022-08-20T07:26:46.193Z,6.28
2022-08-20T07:28:49.286Z,23.45
2022-08-20T07:31:13.844Z,5.93
2022-08-20T07:33:18.944Z,3.83
2022-08-20T07:35:27.369Z,7.53
2022-08-20T07:37:30.226Z,7.88
2022-08-20T07:39:32.793Z,5.20
2022-08-20T07:41:35.845Z,5.80
2022-08-20T07:43:39.658Z,3.65
2022-08-20T07:45:47.998Z,8.73
2022-08-20T07:47:56.151Z,8.95
2022-08-20T07:49:59.004Z,4.32
2022-08-20T07:52:01.656Z,6.93
2022-08-20T07:54:06.775Z,11.57
2022-08-20T07:56:13.214Z,5.68
2022-08-20T07:58:20.022Z,4.53
2022-08-20T08:00:24.175Z,4.63
2022-08-20T08:02:28.419Z,6.55
2022-08-20T08:04:32.049Z,7.80
2022-08-20T08:06:36.868Z,8.23
2022-08-20T08:08:41.203Z,7.45
2022-08-20T08:10:46.357Z,5.30
2022-08-20T08:12:53.008Z,11.77
2022-08-20T08:14:56.584Z,8.90
2022-08-20T08:17:03.593Z,8.75
2022-08-20T08:19:09.841Z,6.50
2022-08-20T08:21:16.639Z,9.45
2022-08-20T08:23:24.869Z,5.43
2022-08-20T08:25:35.248Z,4.25
2022-08-20T08:27:38.324Z,7.18
2022-08-20T08:29:41.102Z,6.88
2022-08-20T08:31:43.811Z,9.93
2022-08-20T08:33:46.668Z,6.53
2022-08-20T08:35:49.257Z,8.65
2022-08-20T08:37:51.974Z,8.23
2022-08-20T08:39:54.709Z,4.75
2022-08-20T08:41:59.149Z,7.00
2022-08-20T08:44:06.172Z,6.70
2022-08-20T08:46:11.944Z,8.73
2022-08-20T08:48:18.772Z,5.80
2022-08-20T08:50:52.879Z,6.55
2022-08-20T08:52:59.630Z,3.80
2022-08-20T08:55:05.772Z,8.68
2022-08-20T08:57:10.923Z,9.30
2022-08-20T08:59:13.682Z,8.25
2022-08-20T09:01:54.416Z,4.10
2022-08-20T09:03:49.134Z,5.03
2022-08-20T09:05:58.739Z,4.63
2022-08-20T09:08:03.617Z,9.30
2022-08-20T09:10:07.358Z,7.43
2022-08-20T09:12:19.053Z,6.95
2022-08-20T09:14:25.112Z,51.85
2022-08-20T09:16:33.130Z,3.25
2022-08-20T09:18:52.282Z,6.10
2022-08-20T09:20:55.449Z,8.13
2022-08-20T09:22:58.258Z,5.35
2022-08-20T09:25:02.862Z,123.47
2022-08-20T09:27:06.665Z,14.43
2022-08-20T09:29:10.165Z,4.38
2022-08-20T09:31:12.798Z,4.22
2022-08-20T09:33:17.653Z,9.05
2022-08-20T09:35:20.272Z,7.95
2022-08-20T09:37:24.796Z,6.72
2022-08-20T09:39:27.359Z,6.20
2022-08-20T09:41:33.665Z,3.90
2022-08-20T09:43:38.440Z,5.07
2022-08-20T09:45:41.130Z,4.78
2022-08-20T09:47:54.688Z,6.57
2022-08-20T09:49:59.435Z,25.77
2022-08-20T09:52:02.957Z,52.65
2022-08-20T09:54:05.950Z,19.27
2022-08-20T09:56:09.422Z,96.80
2022-08-20T09:58:23.805Z,213.63
2022-08-20T10:00:26.461Z,119.65
2022-08-20T10:02:29.081Z,12.48
2022-08-20T10:04:31.694Z,636.22
2022-08-20T10:06:39.941Z,401.02
2022-08-20T10:08:43.578Z,445.63
2022-08-20T10:10:46.268Z,389.40
2022-08-20T10:12:52.801Z,409.75
2022-08-20T10:14:57.597Z,52.08
2022-08-20T10:17:01.818Z,62.65
2022-08-20T10:19:05.830Z,209.77
2022-08-20T10:21:12.420Z,115.78
2022-08-20T10:23:15.060Z,36.05
2022-08-20T10:25:18.059Z,523.25
2022-08-20T10:27:20.778Z,63.30
2022-08-20T10:29:23.547Z,19.83
2022-08-20T10:31:26.177Z,7.00
2022-08-20T10:33:28.722Z,11.32
2022-08-20T10:35:31.286Z,8.95
2022-08-20T10:37:34.945Z,12.00
2022-08-20T10:39:37.606Z,4.38
2022-08-20T10:41:40.665Z,8.02
2022-08-20T10:43:43.322Z,8.35
2022-08-20T10:45:45.936Z,6.30
2022-08-20T10:47:48.781Z,9.05
2022-08-20T10:49:53.531Z,8.85
2022-08-20T10:51:56.750Z,9.30
2022-08-20T10:54:00.242Z,9.38
2022-08-20T10:56:03.114Z,5.50
2022-08-20T10:58:07.224Z,6.63
2022-08-20T11:00:17.822Z,3.00
2022-08-20T11:02:21.281Z,5.45
2022-08-20T11:04:24.128Z,4.88
2022-08-20T11:06:26.856Z,6.88
2022-08-20T11:08:34.460Z,6.88
2022-08-20T11:10:39.392Z,4.72
2022-08-20T11:12:44.831Z,5.22
2022-08-20T11:14:50.535Z,8.05
2022-08-20T11:16:53.375Z,5.18
2022-08-20T11:18:56.019Z,5.72
2022-08-20T11:20:58.904Z,5.30
2022-08-20T11:23:01.572Z,5.13
2022-08-20T11:25:06.302Z,9.77
2022-08-20T11:27:09.707Z,6.43
2022-08-20T11:29:12.432Z,19.50
2022-08-20T11:31:15.182Z,5.15
2022-08-20T11:33:17.740Z,8.30
2022-08-20T11:35:42.296Z,5.57
2022-08-20T11:37:47.992Z,11.02
2022-08-20T11:39:51.099Z,9.27
2022-08-20T11:41:55.432Z,6.78
2022-08-20T11:44:20.221Z,5.85
2022-08-20T11:46:23.435Z,5.68
2022-08-20T11:48:29.257Z,4.93
2022-08-20T11:50:32.080Z,2.67
2022-08-20T11:52:35.341Z,3.85
2022-08-20T11:54:40.723Z,5.47
2022-08-20T11:56:45.979Z,6.65
2022-08-20T11:58:48.777Z,15.18
2022-08-20T12:00:51.541Z,8.55
2022-08-20T12:02:54.272Z,5.53
2022-08-20T12:04:58.474Z,4.40
2022-08-20T12:07:10.455Z,5.95
2022-08-20T12:09:13.374Z,4.57
2022-08-20T12:11:15.970Z,7.30
2022-08-20T12:13:18.576Z,7.72
2022-08-20T12:15:23.352Z,5.68
2022-08-20T12:17:29.826Z,7.85
2022-08-20T12:19:32.402Z,6.95
2022-08-20T12:21:35.103Z,9.00
2022-08-20T12:23:46.379Z,2.83
2022-08-20T12:25:50.384Z,4.25
2022-08-20T12:27:53.147Z,11.27
2022-08-20T12:29:58.103Z,4.38
2022-08-20T12:32:00.709Z,10.13
2022-08-20T12:34:03.344Z,7.35
2022-08-20T12:36:06.247Z,2.22
2022-08-20T12:38:08.962Z,6.13
2022-08-20T12:40:24.420Z,6.55
2022-08-20T12:42:35.566Z,5.68
2022-08-20T12:44:39.070Z,4.05
2022-08-20T12:46:41.629Z,4.38
2022-08-20T12:48:44.253Z,5.18
2022-08-20T12:50:47.110Z,10.20
2022-08-20T12:52:50.610Z,4.50
2022-08-20T12:54:54.568Z,7.10
2022-08-20T12:56:57.709Z,6.65
2022-08-20T12:59:00.293Z,5.20
2022-08-20T13:01:02.955Z,5.93
2022-08-20T13:03:07.162Z,9.27
2022-08-20T13:05:11.541Z,5.93
2022-08-20T13:07:14.783Z,7.43
2022-08-20T13:09:18.702Z,3.53
2022-08-20T13:11:21.351Z,5.30
2022-08-20T13:13:23.883Z,6.95
2022-08-20T13:15:26.545Z,4.05
2022-08-20T13:17:38.710Z,5.00
2022-08-20T13:19:42.073Z,4.22
2022-08-20T13:21:44.664Z,5.13
2022-08-20T13:23:57.664Z,8.88
2022-08-20T13:26:00.254Z,11.32
2022-08-20T13:28:04.878Z,3.63
2022-08-20T13:30:09.273Z,5.22
2022-08-20T13:32:11.876Z,6.38
2022-08-20T13:34:14.505Z,4.45
2022-08-20T13:36:17.132Z,2.95
2022-08-20T13:38:20.043Z,4.00
2022-08-20T13:40:22.775Z,5.88
2022-08-20T13:42:27.042Z,3.95
2022-08-20T13:44:33.212Z,7.20
2022-08-20T13:46:36.144Z,4.47
2022-08-20T13:48:38.758Z,3.25
2022-08-20T13:50:41.478Z,3.45
2022-08-20T13:52:46.010Z,5.63
2022-08-20T13:54:48.778Z,6.60
2022-08-20T13:56:51.375Z,5.00
2022-08-20T13:58:54.040Z,3.83
2022-08-20T14:00:56.921Z,8.00
2022-08-20T14:03:04.322Z,6.88
2022-08-20T14:05:07.717Z,6.75
2022-08-20T14:07:32.304Z,6.10
2022-08-20T14:09:38.452Z,5.28
2022-08-20T14:11:41.035Z,5.35
2022-08-20T14:13:43.769Z,3.97
2022-08-20T14:15:46.501Z,6.82
2022-08-20T14:17:52.467Z,7.47
2022-08-20T14:20:01.164Z,2.97
2022-08-20T14:22:06.421Z,3.20
2022-08-20T14:24:09.117Z,4.10
2022-08-20T14:26:11.785Z,4.35
2022-08-20T14:28:18.461Z,2.45
2022-08-20T14:30:28.353Z,8.57
2022-08-20T14:32:31.140Z,4.15
2022-08-20T14:34:34.974Z,3.38
2022-08-20T14:36:37.638Z,6.00
2022-08-20T14:38:45.187Z,8.52
2022-08-20T14:40:48.603Z,6.78
2022-08-20T14:42:51.967Z,3.88
2022-08-20T14:44:56.242Z,5.47
2022-08-20T14:47:11.182Z,8.18
2022-08-20T14:49:13.838Z,12.10
2022-08-20T14:51:16.985Z,4.50
2022-08-20T14:53:19.786Z,7.75
2022-08-20T14:55:25.477Z,5.65
2022-08-20T14:57:28.127Z,6.95
2022-08-20T14:59:30.904Z,11.30
2022-08-20T15:01:33.604Z,5.80
2022-08-20T15:03:36.238Z,8.27
2022-08-20T15:05:40.761Z,12.13
2022-08-20T15:07:46.436Z,5.82
2022-08-20T15:09:50.239Z,6.65
2022-08-20T15:11:52.801Z,10.90
2022-08-20T15:13:55.362Z,11.23
2022-08-20T15:15:58.057Z,7.38
2022-08-20T15:18:00.802Z,6.13
2022-08-20T15:20:19.877Z,14.25
2022-08-20T15:22:23.981Z,6.78
2022-08-20T15:24:26.547Z,7.35
2022-08-20T15:26:29.786Z,7.28
2022-08-20T15:28:32.426Z,6.45
2022-08-20T15:30:36.538Z,8.15
2022-08-20T15:32:39.407Z,3.90
2022-08-20T15:34:42.525Z,12.02
2022-08-20T15:36:45.383Z,5.65
2022-08-20T15:38:48.146Z,9.45
2022-08-20T15:40:50.741Z,4.20
2022-08-20T15:42:53.506Z,10.82
2022-08-20T15:44:56.194Z,8.90
2022-08-20T15:47:16.861Z,9.23
2022-08-20T15:49:19.522Z,8.25
2022-08-20T15:51:38.280Z,12.55
2022-08-20T15:53:47.030Z,8.77
2022-08-20T15:56:03.115Z,5.25
2022-08-20T15:58:14.233Z,12.15
2022-08-20T16:00:23.914Z,8.77
2022-08-20T16:02:41.655Z,8.60
2022-08-20T16:04:55.986Z,4.85
2022-08-20T16:07:06.165Z,7.60
2022-08-20T16:09:54.836Z,4.22
2022-08-20T16:12:08.162Z,5.82
2022-08-20T16:14:24.776Z,6.80
2022-08-20T16:16:30.040Z,6.45
2022-08-20T16:18:38.198Z,11.40
2022-08-20T16:20:52.841Z,10.68
2022-08-20T16:22:56.311Z,7.28
2022-08-20T16:24:59.741Z,7.80
2022-08-20T16:27:41.016Z,10.70
2022-08-20T16:30:00.414Z,10.25
2022-08-20T16:32:09.221Z,10.23
2022-08-20T16:34:33.981Z,10.70
2022-08-20T16:36:48.802Z,9.95
2022-08-20T16:39:12.043Z,9.80
2022-08-20T16:41:40.104Z,6.68
2022-08-20T16:43:56.621Z,6.65
2022-08-20T16:46:03.838Z,5.72
2022-08-20T16:48:08.602Z,6.50
2022-08-20T16:50:25.900Z,5.25
2022-08-20T16:52:28.522Z,8.18
2022-08-20T16:54:31.523Z,11.40
2022-08-20T16:56:40.723Z,6.25
2022-08-20T16:58:45.450Z,7.03
2022-08-20T17:00:48.195Z,9.20
2022-08-20T17:03:03.059Z,12.65
2022-08-20T17:05:06.768Z,6.35
2022-08-20T17:07:11.722Z,7.97
2022-08-20T17:09:31.950Z,9.75
2022-08-20T17:11:36.643Z,9.07
2022-08-20T17:13:43.515Z,11.02
2022-08-20T17:16:16.388Z,9.75
2022-08-20T17:18:29.819Z,13.43
2022-08-20T17:20:45.096Z,14.65
2022-08-20T17:22:55.196Z,7.57
2022-08-20T17:24:58.436Z,13.25
2022-08-20T17:27:10.097Z,7.53
2022-08-20T17:29:25.766Z,11.23
2022-08-20T17:31:38.807Z,8.40
2022-08-20T17:33:42.566Z,15.75
2022-08-20T17:35:54.650Z,7.60
2022-08-20T17:38:00.107Z,9.55
2022-08-20T17:40:33.965Z,15.07
2022-08-20T17:42:58.851Z,8.13
2022-08-20T17:45:21.344Z,9.23
2022-08-20T17:47:32.408Z,12.57
2022-08-20T17:50:02.372Z,9.52
2022-08-20T17:52:30.332Z,10.43
2022-08-20T17:54:39.456Z,5.60
2022-08-20T17:56:44.258Z,7.53
2022-08-20T18:00:00.212Z,12.93
2022-08-20T18:01:47.404Z,8.43
2022-08-20T18:03:52.280Z,10.48
2022-08-20T18:06:01.629Z,14.30
2022-08-20T18:08:20.367Z,12.48
2022-08-20T18:10:26.437Z,7.60
2022-08-20T18:12:41.749Z,10.52
2022-08-20T18:14:59.829Z,9.10
2022-08-20T18:17:43.817Z,11.27
2022-08-20T18:19:52.418Z,10.68
2022-08-20T18:22:20.258Z,9.30
2022-08-20T18:24:39.063Z,11.73
2022-08-20T18:26:54.250Z,10.18
2022-08-20T18:29:34.308Z,8.85
2022-08-20T18:31:55.550Z,8.10
2022-08-20T18:33:58.729Z,10.45
2022-08-20T18:36:34.605Z,10.82
2022-08-20T18:38:42.095Z,18.52
2022-08-20T18:40:44.787Z,8.52
2022-08-20T18:42:47.729Z,12.35
2022-08-20T18:44:52.769Z,10.98
2022-08-20T18:46:59.434Z,11.93
2022-08-20T18:49:06.209Z,11.07
2022-08-20T18:51:11.811Z,13.80
2022-08-20T18:53:34.435Z,14.60
2022-08-20T18:55:59.402Z,15.38
2022-08-20T18:58:07.076Z,10.63
2022-08-20T19:00:14.625Z,12.88
2022-08-20T19:02:25.176Z,18.80
2022-08-20T19:04:32.124Z,11.43
2022-08-20T19:06:53.289Z,10.73
2022-08-20T19:09:20.279Z,11.38
2022-08-20T19:12:05.037Z,11.52
2022-08-20T19:14:59.110Z,12.30
2022-08-20T19:17:16.862Z,10.07
2022-08-20T19:19:24.535Z,8.45
2022-08-20T19:21:35.751Z,11.90
2022-08-20T19:23:41.627Z,12.85
2022-08-20T19:26:03.483Z,11.73
2022-08-20T19:28:32.066Z,7.95
2022-08-20T19:30:39.767Z,8.30
2022-08-20T19:32:53.763Z,18.50
2022-08-20T19:35:06.606Z,15.02
2022-08-20T19:37:34.919Z,15.45
2022-08-20T19:39:43.381Z,9.15
2022-08-20T19:41:49.120Z,8.05
2022-08-20T19:43:54.289Z,11.50
2022-08-20T19:45:57.328Z,11.35
2022-08-20T19:48:18.508Z,10.15
2022-08-20T19:50:38.185Z,16.02
2022-08-20T19:53:02.845Z,10.43
2022-08-20T19:55:21.935Z,13.32
2022-08-20T19:57:26.254Z,14.38
2022-08-20T19:59:29.226Z,11.52
2022-08-20T20:01:33.786Z,22.02
2022-08-20T20:03:40.403Z,14.25
2022-08-20T20:06:17.028Z,17.77
2022-08-20T20:08:22.608Z,10.98
2022-08-20T20:10:35.266Z,15.88
2022-08-20T20:12:39.642Z,15.88
2022-08-20T20:14:44.388Z,26.23
2022-08-20T20:16:50.724Z,20.60
2022-08-20T20:19:15.730Z,23.00
2022-08-20T20:21:46.933Z,19.58
2022-08-20T20:24:01.885Z,13.95
2022-08-20T20:26:08.732Z,19.83
2022-08-20T20:28:19.884Z,13.57
2022-08-20T20:30:31.090Z,23.25
2022-08-20T20:32:34.189Z,21.58
2022-08-20T20:34:55.041Z,23.17
2022-08-20T20:37:11.537Z,17.80
2022-08-20T20:39:33.604Z,21.42
2022-08-20T20:41:37.823Z,20.33
2022-08-20T20:43:43.448Z,23.17
2022-08-20T20:45:56.295Z,19.92
2022-08-20T20:47:59.328Z,26.55
2022-08-20T20:50:06.472Z,21.50
2022-08-20T20:52:28.847Z,25.02
2022-08-20T20:54:44.367Z,26.45
2022-08-20T20:56:59.020Z,29.17
2022-08-20T20:59:06.077Z,24.35
2022-08-20T21:01:09.596Z,23.67
2022-08-20T21:03:12.732Z,23.75
2022-08-20T21:05:17.569Z,36.67
2022-08-20T21:07:23.166Z,15.75
2022-08-20T21:09:26.894Z,21.25
2022-08-20T21:11:30.538Z,18.08
2022-08-20T21:13:33.172Z,19.15
2022-08-20T21:15:38.149Z,16.85
2022-08-20T21:17:41.335Z,17.13
2022-08-20T21:19:45.377Z,16.40
2022-08-20T21:21:48.193Z,19.60
2022-08-20T21:23:50.803Z,18.02
2022-08-20T21:25:53.469Z,19.10
2022-08-20T21:27:56.648Z,22.75
2022-08-20T21:29:59.395Z,19.80
2022-08-20T21:32:02.027Z,17.10
2022-08-20T21:34:04.723Z,20.48
2022-08-20T21:36:07.670Z,15.48
2022-08-20T21:38:10.553Z,17.58
2022-08-20T21:40:21.568Z,18.23
2022-08-20T21:42:29.098Z,23.00
2022-08-20T21:44:33.671Z,22.92
2022-08-20T21:46:36.425Z,17.77
2022-08-20T21:48:39.248Z,15.18
2022-08-20T21:50:42.251Z,13.85
2022-08-20T21:52:51.741Z,14.85
2022-08-20T21:55:02.441Z,22.67
2022-08-20T21:57:18.099Z,15.20
2022-08-20T21:59:22.894Z,13.75
2022-08-20T22:01:25.674Z,10.18
2022-08-20T22:03:31.744Z,12.13
2022-08-20T22:05:34.919Z,15.80
2022-08-20T22:07:37.756Z,21.90
2022-08-20T22:09:40.465Z,12.45
2022-08-20T22:11:43.382Z,15.63
2022-08-20T22:13:46.415Z,13.00
2022-08-20T22:15:49.104Z,16.70
2022-08-20T22:17:52.010Z,13.65
2022-08-20T22:19:54.673Z,17.67
2022-08-20T22:21:57.539Z,14.38
2022-08-20T22:24:03.841Z,13.70
2022-08-20T22:26:08.007Z,15.40
2022-08-20T22:28:10.746Z,11.80
2022-08-20T22:30:13.694Z,11.18
2022-08-20T22:32:16.389Z,15.30
2022-08-20T22:34:21.609Z,14.10
2022-08-20T22:36:25.694Z,10.35
2022-08-20T22:38:28.670Z,15.52
2022-08-20T22:40:31.385Z,13.23
2022-08-20T22:42:34.100Z,10.55
2022-08-20T22:44:36.725Z,13.75
2022-08-20T22:46:47.057Z,12.77
2022-08-20T22:50:53.870Z,11.32
2022-08-20T22:52:57.010Z,9.85
2022-08-20T22:54:59.760Z,11.32
2022-08-20T22:57:02.431Z,9.80
2022-08-20T22:59:06.823Z,11.52
2022-08-20T23:01:09.963Z,10.82
2022-08-20T23:03:12.929Z,9.85
2022-08-20T23:05:21.602Z,9.50
2022-08-20T23:07:24.392Z,9.13
2022-08-20T23:09:27.800Z,9.75
2022-08-20T23:11:32.882Z,13.07
2022-08-20T23:13:35.667Z,13.25
2022-08-20T23:15:41.507Z,9.25
2022-08-20T23:17:48.601Z,9.43
2022-08-20T23:19:51.760Z,15.38
2022-08-20T23:21:54.417Z,7.93
2022-08-20T23:23:57.136Z,10.05
2022-08-20T23:26:00.966Z,8.73
2022-08-20T23:28:04.419Z,9.02
2022-08-20T23:30:07.954Z,10.90
2022-08-20T23:32:10.760Z,10.75
2022-08-20T23:34:13.489Z,9.80
2022-08-20T23:36:19.723Z,7.57
2022-08-20T23:38:22.356Z,13.30
2022-08-20T23:40:28.408Z,16.08
2022-08-20T23:42:31.307Z,5.75
2022-08-20T23:44:34.008Z,8.73
2022-08-20T23:46:38.118Z,11.27
2022-08-20T23:48:40.809Z,8.63
2022-08-20T23:50:43.588Z,14.07
2022-08-20T23:52:46.421Z,12.07
2022-08-20T23:54:49.195Z,11.05
2022-08-20T23:56:51.944Z,7.00
2022-08-20T23:58:59.692Z,5.88
